Time;durP1;ratioP1;P1;durP2;ratioP2;P2;SDS_P1;SDS_P2;PMS_P1;PMS_P2;Temp;Humidity;BMP_temperature;BMP_pressure;BME280_temperature;BME280_humidity;BME280_pressure;Samples;Min_cycle;Max_cycle;Signal;HPM_P1;HPM_P2
2021/03/21 07:03:09;;;;;;;11.93;6.30;;;;;;;-0.96;60.24;99746.74;1693457;83;25614;-53
2021/03/21 07:06:20;;;;;;;12.70;6.17;;;;;;;-0.95;60.29;99756.86;1689556;84;25614;-51
2021/03/21 07:09:10;;;;;;;15.58;7.45;;;;;;;-0.95;60.39;99756.33;1633714;87;25630;-55
2021/03/21 07:12:09;;;;;;;14.75;7.00;;;;;;;-0.92;60.40;99742.27;1623910;88;25711;-55
2021/03/21 07:15:06;;;;;;;14.00;7.17;;;;;;;-0.92;60.52;99741.73;1633984;86;25752;-51
2021/03/21 07:17:56;;;;;;;16.73;8.18;;;;;;;-0.90;60.64;99741.50;1647759;86;25670;-51
2021/03/21 07:21:11;;;;;;;15.05;8.20;;;;;;;-0.89;60.84;99737.27;1655599;86;25666;-55
2021/03/21 07:24:11;;;;;;;11.85;7.37;;;;;;;-0.87;60.82;99732.54;1655894;86;25730;-53
2021/03/21 07:27:23;;;;;;;16.05;7.60;;;;;;;-0.87;60.93;99727.73;1653932;86;25678;-53
2021/03/21 07:30:00;;;;;;;17.60;8.58;;;;;;;-0.84;61.06;99724.05;1651030;86;25832;-52
2021/03/21 07:33:02;;;;;;;16.37;11.03;;;;;;;-0.74;61.15;99728.69;1801684;78;30897;-52
2021/03/21 07:35:55;;;;;;;15.43;8.95;;;;;;;-0.74;61.28;99719.40;1775054;80;25557;-54
2021/03/21 07:38:44;;;;;;;13.45;8.50;;;;;;;-0.69;61.17;99698.20;1789032;80;25825;-55
2021/03/21 07:41:52;;;;;;;13.13;8.00;;;;;;;-0.63;61.20;99698.55;1753737;81;25597;-55
2021/03/21 07:44:56;;;;;;;15.45;7.72;;;;;;;-0.61;61.24;99687.14;1736234;81;25617;-52
2021/03/21 07:47:51;;;;;;;16.97;8.65;;;;;;;-0.51;61.37;99685.12;1682168;84;25697;-54
2021/03/21 07:50:57;;;;;;;16.27;8.88;;;;;;;-0.34;61.41;99676.23;1849218;76;34522;-53
2021/03/21 07:53:35;;;;;;;15.90;8.60;;;;;;;-0.36;61.46;99676.48;1818566;78;25489;-54
2021/03/21 07:56:37;;;;;;;16.97;9.05;;;;;;;-0.31;61.63;99667.23;1819247;78;25890;-52
2021/03/21 07:59:17;;;;;;;13.90;8.35;;;;;;;-0.32;61.94;99675.45;1820578;77;25307;-55
2021/03/21 08:01:44;;;;;;;;;;;;;;;-0.36;62.43;99665.85;1820062;78;25508;-55
2021/03/21 08:04:30;;;;;;;14.10;8.83;;;;;;;-0.38;63.26;99674.07;1817355;79;25564;-54
2021/03/21 08:07:11;;;;;;;17.27;9.78;;;;;;;-0.42;63.25;99666.88;1817483;79;25570;-55
2021/03/21 08:09:39;;;;;;;13.90;9.00;;;;;;;-0.46;63.40;99665.75;1750511;82;25773;-53
2021/03/21 08:12:23;;;;;;;19.73;9.53;;;;;;;-0.47;63.66;99668.16;1750496;81;25619;-53
2021/03/21 08:15:24;;;;;;;16.95;8.98;;;;;;;-0.48;63.45;99662.02;1751294;81;25638;-56
2021/03/21 08:17:58;;;;;;;19.15;9.68;;;;;;;-0.51;63.71;99663.88;1750891;81;26179;-54
2021/03/21 08:20:38;;;;;;;18.80;8.43;;;;;;;-0.54;64.01;99663.04;1724367;83;25575;-54
2021/03/21 08:23:23;;;;;;;18.20;9.50;;;;;;;-0.55;63.55;99659.30;1724359;83;26191;-52
2021/03/21 08:25:53;;;;;;;17.32;8.65;;;;;;;-0.53;63.68;99651.34;1725264;83;25714;-52
2021/03/21 08:28:35;;;;;;;16.52;10.20;;;;;;;-0.48;64.36;99654.58;1724568;83;26183;-52
2021/03/21 08:30:57;;;;;;;23.20;10.32;;;;;;;-0.51;64.72;99650.59;1731294;82;25583;-56
2021/03/21 08:33:32;;;;;;;17.25;9.88;;;;;;;-0.54;65.00;99649.75;1764376;80;25528;-56
2021/03/21 08:36:26;;;;;;;17.05;10.08;;;;;;;-0.54;65.32;99658.27;1738724;81;26380;-56
2021/03/21 08:39:07;;;;;;;19.45;10.80;;;;;;;-0.55;65.58;99665.41;1773966;80;25507;-55
2021/03/21 08:41:56;;;;;;;18.00;9.60;;;;;;;-0.61;66.24;99650.48;1768063;81;25510;-55
2021/03/21 08:44:39;;;;;;;14.95;9.60;;;;;;;-0.63;65.96;99643.27;1777993;80;25545;-54
2021/03/21 08:47:19;;;;;;;16.27;9.45;;;;;;;-0.64;66.56;99645.14;1778508;80;25502;-55
2021/03/21 08:49:50;;;;;;;17.23;10.53;;;;;;;-0.63;66.35;99644.09;1780146;80;25832;-55
2021/03/21 08:52:42;;;;;;;17.98;9.75;;;;;;;-0.59;66.73;99637.75;1781423;80;25515;-56
2021/03/21 08:55:32;;;;;;;21.75;10.72;;;;;;;-0.54;66.89;99635.68;1779442;80;25316;-54
2021/03/21 08:58:06;;;;;;;18.57;10.82;;;;;;;-0.56;67.14;99631.94;1781484;80;25548;-56
2021/03/21 09:00:36;;;;;;;24.67;12.35;;;;;;;-0.58;67.77;99641.48;1776498;80;25513;-56
2021/03/21 09:03:28;;;;;;;20.80;12.23;;;;;;;-0.63;68.19;99636.13;1781106;80;26680;-55
2021/03/21 09:05:58;;;;;;;21.42;11.85;;;;;;;-0.62;68.76;99635.59;1763415;80;25461;-54
2021/03/21 09:08:29;;;;;;;23.07;12.80;;;;;;;-0.65;68.97;99638.20;1766279;81;25293;-55
2021/03/21 09:11:00;;;;;;;19.40;12.43;;;;;;;-0.67;69.95;99634.21;1766270;81;25554;-55
2021/03/21 09:13:34;;;;;;;21.68;13.15;;;;;;;-0.67;70.69;99633.67;1766335;81;25653;-51
2021/03/21 09:16:10;;;;;;;21.45;14.00;;;;;;;-0.70;72.94;99639.48;1766358;81;25700;-54
2021/03/21 09:18:40;;;;;;;24.70;14.23;;;;;;;-0.73;72.03;99633.88;1751647;79;26108;-53
2021/03/21 09:21:25;;;;;;;21.23;13.65;;;;;;;-0.73;72.54;99636.53;1748664;81;25870;-56
2021/03/21 09:24:10;;;;;;;23.87;13.20;;;;;;;-0.72;71.90;99628.85;1735980;82;25514;-56
2021/03/21 09:26:45;;;;;;;23.45;13.30;;;;;;;-0.68;72.46;99632.09;1762387;80;25504;-55
2021/03/21 09:29:20;;;;;;;25.25;12.95;;;;;;;-0.72;72.51;99624.33;1781834;80;26889;-55
2021/03/21 09:31:51;;;;;;;19.12;11.45;;;;;;;-0.74;72.07;99626.44;1799142;79;25672;-55
2021/03/21 09:34:29;;;;;;;21.40;12.18;;;;;;;-0.71;72.83;99630.47;1783429;80;25585;-53
2021/03/21 09:37:09;;;;;;;23.65;13.20;;;;;;;-0.73;72.72;99629.89;1799031;79;25608;-53
2021/03/21 09:39:40;;;;;;;21.90;12.23;;;;;;;-0.75;73.35;99631.47;1783441;80;25317;-55
2021/03/21 09:42:11;;;;;;;28.15;12.78;;;;;;;-0.75;73.25;99620.84;1799242;79;27983;-55
2021/03/21 09:44:45;;;;;;;17.10;10.93;;;;;;;-0.73;72.57;99628.05;1783062;80;25797;-55
2021/03/21 09:47:26;;;;;;;16.07;11.35;;;;;;;-0.72;73.40;99624.87;1799363;79;25433;-56
2021/03/21 09:50:25;;;;;;;28.77;14.33;;;;;;;-0.69;73.29;99619.85;1782091;80;25639;-55
2021/03/21 09:53:00;;;;;;;20.80;12.85;;;;;;;-0.68;72.84;99616.16;1798645;79;25291;-57
2021/03/21 09:55:51;;;;;;;17.70;11.78;;;;;;;-0.64;72.98;99604.50;1783398;80;25775;-56
2021/03/21 09:59:13;;;;;;;24.23;14.05;;;;;;;-0.59;72.83;99612.52;1798984;79;25642;-55
2021/03/21 10:01:57;;;;;;;23.55;14.68;;;;;;;-0.58;72.71;99619.41;1783376;80;25416;-53
2021/03/21 10:04:38;;;;;;;21.75;13.00;;;;;;;-0.55;72.60;99612.81;1766405;80;25613;-56
2021/03/21 10:07:16;;;;;;;23.70;13.50;;;;;;;-0.53;72.70;99599.53;1804353;79;25395;-55
2021/03/21 10:09:45;;;;;;;24.12;12.20;;;;;;;-0.51;73.20;99602.77;1783184;80;26180;-53
2021/03/21 10:12:14;;;;;;;21.53;12.57;;;;;;;-0.50;73.92;99604.89;1798806;79;25467;-55
2021/03/21 10:14:46;;;;;;;23.18;14.68;;;;;;;-0.51;73.72;99597.95;1781329;80;25292;-57
2021/03/21 10:17:24;;;;;;;25.40;14.25;;;;;;;-0.46;73.61;99600.66;1795085;79;25476;-56
2021/03/21 10:19:54;;;;;;;27.20;13.68;;;;;;;-0.41;73.65;99607.34;1753927;81;25509;-55
2021/03/21 10:22:34;;;;;;;21.10;13.45;;;;;;;-0.40;73.53;99599.66;1754192;81;25768;-54
2021/03/21 10:25:05;;;;;;;22.42;13.18;;;;;;;-0.38;73.80;99594.88;1754211;81;25244;-54
2021/03/21 10:27:48;;;;;;;23.95;15.30;;;;;;;-0.39;74.00;99599.41;1750352;81;25637;-55
2021/03/21 10:30:29;;;;;;;25.72;14.90;;;;;;;-0.38;73.94;99579.73;1754087;81;25339;-54
2021/03/21 10:33:07;;;;;;;23.52;14.10;;;;;;;-0.36;73.48;99589.32;1754326;81;25457;-51
2021/03/21 10:35:45;;;;;;;23.62;14.38;;;;;;;-0.34;74.87;99590.69;1753998;81;25882;-55
2021/03/21 10:38:46;;;;;;;24.77;14.78;;;;;;;-0.34;74.48;99586.70;1754310;81;25320;-57
2021/03/21 10:41:51;;;;;;;22.77;14.83;;;;;;;-0.32;73.93;99586.42;1752891;81;25970;-55
2021/03/21 10:44:23;;;;;;;20.68;14.25;;;;;;;-0.31;74.17;99576.08;1753311;81;25745;-55
2021/03/21 10:46:53;;;;;;;24.72;15.18;;;;;;;-0.30;74.23;99580.34;1724292;81;25770;-56
2021/03/21 10:49:56;;;;;;;27.15;16.75;;;;;;;-0.31;74.09;99584.05;1755679;81;25726;-53
2021/03/21 10:52:28;;;;;;;23.38;14.90;;;;;;;-0.31;73.88;99571.55;1767095;80;25609;-52
2021/03/21 10:55:21;;;;;;;24.37;14.73;;;;;;;-0.32;74.11;99575.78;1747481;80;25621;-55
2021/03/21 10:57:52;;;;;;;23.95;14.55;;;;;;;-0.31;74.10;99575.53;1747664;79;26325;-56
2021/03/21 11:00:30;;;;;;;28.55;16.40;;;;;;;-0.30;74.81;99578.48;1736594;82;25629;-55
2021/03/21 11:03:10;;;;;;;24.30;16.30;;;;;;;-0.32;74.44;99571.80;1735869;82;26727;-55
2021/03/21 11:05:40;;;;;;;23.98;14.75;;;;;;;-0.32;74.56;99570.47;1735917;82;25897;-55
2021/03/21 11:08:17;;;;;;;29.70;16.48;;;;;;;-0.27;75.07;99570.55;1736166;82;26135;-52
2021/03/21 11:10:54;;;;;;;20.80;14.03;;;;;;;-0.29;75.00;99557.50;1731472;81;25858;-56
2021/03/21 11:13:31;;;;;;;28.23;16.57;;;;;;;-0.28;75.62;99556.97;1736843;82;25601;-52
2021/03/21 11:15:59;;;;;;;27.65;17.37;;;;;;;-0.26;74.84;99556.17;1703064;84;26025;-52
2021/03/21 11:18:32;;;;;;;26.68;16.07;;;;;;;-0.21;75.24;99551.69;1695857;83;25746;-56
2021/03/21 11:21:19;;;;;;;25.90;17.57;;;;;;;-0.18;75.34;99543.74;1720807;83;25658;-54
2021/03/21 11:23:54;;;;;;;29.63;19.20;;;;;;;-0.16;74.76;99547.48;1720982;83;25507;-55
2021/03/21 11:26:33;;;;;;;27.65;16.65;;;;;;;-0.14;74.95;99543.49;1736761;82;25573;-54
2021/03/21 11:29:11;;;;;;;29.37;17.45;;;;;;;-0.10;74.65;99538.46;1737786;82;25776;-55
2021/03/21 11:31:43;;;;;;;29.15;17.15;;;;;;;-0.05;74.62;99531.34;1734977;82;25660;-56
2021/03/21 11:34:21;;;;;;;28.17;18.32;;;;;;;0.03;74.64;99535.36;1737513;82;25619;-54
2021/03/21 11:37:12;;;;;;;28.75;17.95;;;;;;;0.11;74.69;99532.75;1737832;82;25597;-56
2021/03/21 11:39:48;;;;;;;24.75;15.93;;;;;;;0.18;74.40;99538.09;1721050;83;25636;-56
2021/03/21 11:42:33;;;;;;;26.70;17.48;;;;;;;0.22;74.63;99540.24;1720927;83;26672;-54
2021/03/21 11:45:27;;;;;;;25.90;16.85;;;;;;;0.23;74.09;99533.88;1736860;82;25740;-56
2021/03/21 11:48:14;;;;;;;28.87;17.65;;;;;;;0.24;74.23;99534.13;1703994;84;25653;-53
2021/03/21 11:50:44;;;;;;;26.65;18.37;;;;;;;0.24;73.62;99532.29;1723006;83;25600;-52
2021/03/21 11:53:27;;;;;;;27.55;18.12;;;;;;;0.28;74.04;99525.38;1724310;83;25885;-55
2021/03/21 11:55:59;;;;;;;30.85;18.23;;;;;;;0.30;73.68;99517.14;1724521;83;28342;-56
2021/03/21 11:58:34;;;;;;;28.75;18.57;;;;;;;0.31;74.04;99522.20;1732683;81;25724;-56
2021/03/21 12:01:06;;;;;;;26.75;18.50;;;;;;;0.29;73.62;99523.52;1733174;82;25712;-56
2021/03/21 12:03:51;;;;;;;31.55;19.48;;;;;;;0.26;73.83;99518.20;1746240;79;25674;-56
2021/03/21 12:06:27;;;;;;;30.35;17.90;;;;;;;0.27;74.15;99514.45;1776998;80;25738;-56
2021/03/21 12:08:55;;;;;;;28.87;17.65;;;;;;;0.28;73.80;99501.44;1798446;79;25810;-56
2021/03/21 12:11:30;;;;;;;26.27;17.55;;;;;;;0.33;74.31;99495.34;1777831;80;25615;-60
2021/03/21 12:14:18;;;;;;;27.30;18.10;;;;;;;0.37;73.99;99492.42;1798042;79;25634;-54
2021/03/21 12:16:47;;;;;;;25.50;17.23;;;;;;;0.45;74.22;99488.47;1777802;80;25202;-55
2021/03/21 12:19:38;;;;;;;28.47;18.52;;;;;;;0.51;74.09;99490.07;1798782;79;25573;-55
2021/03/21 12:22:22;;;;;;;30.75;18.85;;;;;;;0.58;73.92;99487.98;1777522;80;25787;-52
2021/03/21 12:24:55;;;;;;;28.12;18.50;;;;;;;0.61;74.17;99482.66;1798340;79;25568;-53
2021/03/21 12:27:34;;;;;;;30.77;19.37;;;;;;;0.65;74.19;99481.09;1777859;80;25617;-55
2021/03/21 12:30:09;;;;;;;29.40;18.65;;;;;;;0.62;74.09;99490.92;1799223;79;26236;-56
2021/03/21 12:32:40;;;;;;;27.90;17.20;;;;;;;0.58;74.73;99469.86;1777193;80;25536;-56
2021/03/21 12:35:28;;;;;;;29.25;19.27;;;;;;;0.59;74.86;99470.14;1799078;79;25989;-56
2021/03/21 12:38:01;;;;;;;32.88;18.52;;;;;;;0.61;74.37;99458.70;1777034;80;25621;-55
2021/03/21 12:40:43;;;;;;;27.52;18.67;;;;;;;0.63;74.48;99459.23;1799234;79;25535;-57
2021/03/21 12:43:30;;;;;;;29.50;18.17;;;;;;;0.66;75.24;99458.71;1778221;80;25625;-56
2021/03/21 12:46:10;;;;;;;31.02;19.73;;;;;;;0.64;74.78;99457.64;1799408;79;25561;-57
2021/03/21 12:48:53;;;;;;;30.88;19.12;;;;;;;0.65;75.28;99462.45;1778043;80;25975;-56
2021/03/21 12:51:35;;;;;;;29.18;19.45;;;;;;;0.66;75.44;99452.05;1799186;79;25529;-56
2021/03/21 12:54:05;;;;;;;34.13;20.77;;;;;;;0.66;75.93;99456.84;1799255;79;25503;-55
2021/03/21 12:56:31;;;;;;;27.73;19.67;;;;;;;0.62;75.75;99446.46;1799237;79;25260;-55
2021/03/21 12:58:58;;;;;;;31.23;19.45;;;;;;;0.58;75.80;99449.91;1778139;80;25529;-55
2021/03/21 13:01:24;;;;;;;31.48;20.27;;;;;;;0.57;75.86;99451.77;1799341;79;25812;-53
2021/03/21 13:03:50;;;;;;;29.10;18.62;;;;;;;0.58;76.30;99445.41;1777915;80;25507;-55
2021/03/21 13:06:17;;;;;;;33.83;21.27;;;;;;;0.57;76.60;99448.33;1799264;79;25311;-55
2021/03/21 13:08:43;;;;;;;29.10;19.73;;;;;;;0.57;76.43;99450.98;1778035;80;25279;-55
2021/03/21 13:11:10;;;;;;;31.45;20.17;;;;;;;0.56;77.01;99459.48;1799056;79;25478;-55
2021/03/21 13:13:39;;;;;;;32.38;20.85;;;;;;;0.53;76.48;99451.50;1778012;80;26765;-52
2021/03/21 13:16:06;;;;;;;31.93;21.13;;;;;;;0.52;76.64;99460.54;1769931;79;25626;-55
2021/03/21 13:18:32;;;;;;;32.63;19.52;;;;;;;0.50;76.85;99448.58;1768364;81;25506;-55
2021/03/21 13:21:01;;;;;;;29.12;19.50;;;;;;;0.49;76.83;99445.63;1769284;81;25442;-58
2021/03/21 13:23:28;;;;;;;32.55;18.95;;;;;;;0.46;77.49;99462.94;1769222;81;25582;-57
2021/03/21 13:25:55;;;;;;;32.28;20.80;;;;;;;0.44;77.78;99456.27;1769073;81;25861;-56
2021/03/21 13:28:22;;;;;;;32.60;21.30;;;;;;;0.43;78.00;99456.02;1769288;81;25491;-56
2021/03/21 13:30:49;;;;;;;35.05;20.72;;;;;;;0.41;77.77;99451.45;1769278;81;25276;-55
2021/03/21 13:33:23;;;;;;;33.42;21.85;;;;;;;0.42;77.94;99462.38;1769195;81;25350;-58
2021/03/21 13:35:52;;;;;;;35.88;21.17;;;;;;;0.42;77.92;99450.41;1769036;81;25590;-57
2021/03/21 13:38:20;;;;;;;31.33;20.90;;;;;;;0.44;78.56;99454.39;1768841;81;25687;-57
2021/03/21 13:40:48;;;;;;;29.42;17.80;;;;;;;0.45;78.01;99457.34;1769031;81;25443;-57
2021/03/21 13:43:15;;;;;;;33.98;20.40;;;;;;;0.45;79.20;99457.34;1769235;81;25561;-58
2021/03/21 13:45:44;;;;;;;29.48;18.52;;;;;;;0.44;79.60;99458.92;1769233;81;25521;-58
2021/03/21 13:48:13;;;;;;;33.02;21.50;;;;;;;0.42;79.54;99457.85;1769362;81;25511;-59
2021/03/21 13:50:40;;;;;;;31.90;21.87;;;;;;;0.42;79.47;99457.06;1770109;80;26182;-58
2021/03/21 13:53:08;;;;;;;38.00;22.52;;;;;;;0.42;78.92;99456.52;1757875;81;25581;-59
2021/03/21 13:55:40;;;;;;;35.43;22.55;;;;;;;0.45;79.04;99449.35;1772402;80;25611;-58
2021/03/21 13:58:08;;;;;;;33.60;20.40;;;;;;;0.47;79.22;99454.41;1759578;79;25656;-58
2021/03/21 14:00:37;;;;;;;32.28;21.57;;;;;;;0.48;79.67;99439.52;1742609;80;25537;-56
2021/03/21 14:03:06;;;;;;;32.42;21.73;;;;;;;0.44;79.35;99446.41;1742648;81;26896;-56
2021/03/21 14:05:33;;;;;;;30.23;20.40;;;;;;;0.42;79.31;99439.77;1741815;82;25467;-57
2021/03/21 14:07:59;;;;;;;34.27;23.05;;;;;;;0.40;79.78;99444.55;1742012;81;25543;-56
2021/03/21 14:10:29;;;;;;;33.98;21.85;;;;;;;0.36;79.60;99434.97;1741733;82;25436;-56
2021/03/21 14:12:56;;;;;;;33.78;21.52;;;;;;;0.36;80.14;99435.77;1741946;81;25142;-57
2021/03/21 14:15:25;;;;;;;36.80;22.87;;;;;;;0.37;80.04;99439.22;1741860;81;25727;-54
2021/03/21 14:17:52;;;;;;;38.30;23.38;;;;;;;0.37;79.74;99436.55;1741853;82;25568;-57
2021/03/21 14:20:22;;;;;;;34.05;23.50;;;;;;;0.38;80.17;99426.19;1741883;81;25540;-54
2021/03/21 14:22:50;;;;;;;37.40;24.25;;;;;;;0.40;79.99;99430.72;1741919;82;25422;-57
2021/03/21 14:25:17;;;;;;;33.60;22.22;;;;;;;0.43;79.94;99429.41;1741885;82;25585;-57
2021/03/21 14:27:44;;;;;;;37.75;24.10;;;;;;;0.44;80.28;99425.66;1741918;81;25790;-56
2021/03/21 14:30:13;;;;;;;38.65;25.27;;;;;;;0.46;80.03;99427.02;1742204;81;25559;-55
2021/03/21 14:32:39;;;;;;;43.10;26.50;;;;;;;0.47;80.08;99425.14;1742288;82;25325;-55
2021/03/21 14:35:09;;;;;;;41.65;26.33;;;;;;;0.49;80.38;99423.02;1745709;79;25533;-57
2021/03/21 14:37:35;;;;;;;38.15;24.70;;;;;;;0.49;80.17;99416.36;1756030;80;25654;-56
2021/03/21 14:40:04;;;;;;;38.45;25.25;;;;;;;0.51;80.53;99415.05;1772678;80;25697;-57
2021/03/21 14:42:30;;;;;;;41.65;25.02;;;;;;;0.51;80.84;99415.56;1804786;79;25403;-57
2021/03/21 14:44:57;;;;;;;42.48;25.97;;;;;;;0.50;80.65;99410.78;1785824;80;25440;-57
2021/03/21 14:47:23;;;;;;;40.35;26.60;;;;;;;0.49;80.63;99414.48;1804479;79;25507;-58
2021/03/21 14:49:49;;;;;;;41.58;25.97;;;;;;;0.50;80.66;99407.33;1785652;80;25719;-58
2021/03/21 14:52:17;;;;;;;37.08;25.23;;;;;;;0.50;80.57;99408.12;1799777;79;25709;-58
2021/03/21 14:54:43;;;;;;;45.63;26.75;;;;;;;0.51;80.76;99400.92;1777674;80;25462;-58
2021/03/21 14:57:10;;;;;;;43.15;28.05;;;;;;;0.55;80.77;99408.13;1799178;79;25519;-58
2021/03/21 14:59:36;;;;;;;39.35;25.68;;;;;;;0.55;80.71;99405.47;1777995;80;25284;-58
2021/03/21 15:02:04;;;;;;;41.85;25.48;;;;;;;0.55;80.58;99402.80;1757368;80;25584;-57
2021/03/21 15:04:30;;;;;;;39.53;25.57;;;;;;;0.57;80.95;99403.88;1761300;81;25692;-57
2021/03/21 15:06:57;;;;;;;42.33;27.17;;;;;;;0.54;81.11;99400.41;1760669;81;25655;-57
2021/03/21 15:09:23;;;;;;;43.02;28.00;;;;;;;0.54;80.89;99400.41;1761101;81;25488;-58
2021/03/21 15:11:50;;;;;;;39.27;26.00;;;;;;;0.55;80.95;99401.47;1761155;81;25296;-59
2021/03/21 15:14:16;;;;;;;44.25;27.82;;;;;;;0.57;80.74;99396.43;1761438;81;25498;-60
2021/03/21 15:16:43;;;;;;;44.85;27.48;;;;;;;0.60;81.06;99395.91;1763038;80;25721;-59
2021/03/21 15:19:09;;;;;;;38.95;25.48;;;;;;;0.62;80.85;99397.77;1754489;81;25542;-60
2021/03/21 15:21:36;;;;;;;43.55;26.50;;;;;;;0.61;80.79;99398.28;1761393;81;25483;-60
2021/03/21 15:24:05;;;;;;;41.02;26.37;;;;;;;0.60;81.00;99397.23;1761173;81;25564;-57
2021/03/21 15:26:35;;;;;;;39.70;25.75;;;;;;;0.59;80.91;99399.62;1756519;79;25520;-59
2021/03/21 15:29:02;;;;;;;38.40;24.67;;;;;;;0.58;81.43;99398.83;1748734;79;25773;-58
2021/03/21 15:31:34;;;;;;;38.90;27.17;;;;;;;0.57;81.46;99409.20;1743404;82;25542;-59
2021/03/21 15:34:02;;;;;;;43.48;27.22;;;;;;;0.54;81.12;99409.72;1743678;82;25605;-59
2021/03/21 15:36:30;;;;;;;27.13;18.35;;;;;;;0.55;81.12;99406.80;1746226;81;26423;-60
2021/03/21 15:38:59;;;;;;;38.25;24.85;;;;;;;0.56;81.24;99408.91;1748961;81;25777;-59
2021/03/21 15:41:30;;;;;;;28.20;18.67;;;;;;;0.56;81.60;99403.59;1743310;80;26615;-59
2021/03/21 15:43:58;;;;;;;40.60;26.00;;;;;;;0.58;81.51;99404.66;1745420;81;25643;-60
2021/03/21 15:46:27;;;;;;;38.67;26.60;;;;;;;0.56;81.62;99402.27;1758659;80;25672;-59
2021/03/21 15:48:55;;;;;;;39.55;27.35;;;;;;;0.55;81.50;99409.45;1757151;80;25739;-60
2021/03/21 15:51:24;;;;;;;37.33;25.55;;;;;;;0.54;81.45;99407.05;1750233;80;25589;-59
2021/03/21 15:53:51;;;;;;;43.15;27.70;;;;;;;0.54;81.89;99403.06;1755689;80;25722;-57
2021/03/21 15:56:18;;;;;;;44.15;27.13;;;;;;;0.53;81.91;99403.60;1744757;81;25579;-57
2021/03/21 15:58:46;;;;;;;45.17;28.12;;;;;;;0.53;82.13;99402.81;1740789;81;25525;-59
2021/03/21 16:01:15;;;;;;;45.90;26.80;;;;;;;0.52;81.83;99401.99;1730719;82;25507;-59
2021/03/21 16:03:43;;;;;;;44.25;27.60;;;;;;;0.52;82.00;99404.66;1730944;82;26004;-59
2021/03/21 16:06:11;;;;;;;39.20;25.70;;;;;;;0.54;82.68;99407.05;1730794;82;26108;-59
2021/03/21 16:08:38;;;;;;;42.80;28.42;;;;;;;0.54;82.21;99406.52;1730437;82;25527;-61
2021/03/21 16:11:06;;;;;;;44.27;26.37;;;;;;;0.54;82.18;99407.05;1748096;81;25522;-61
2021/03/21 16:13:35;;;;;;;47.67;29.35;;;;;;;0.53;82.71;99407.59;1758894;81;25551;-61
2021/03/21 16:16:03;;;;;;;42.78;28.42;;;;;;;0.54;82.50;99409.72;1758861;81;25581;-60
2021/03/21 16:18:29;;;;;;;47.08;28.55;;;;;;;0.54;82.27;99411.05;1758780;81;25793;-59
2021/03/21 16:20:57;;;;;;;45.30;26.75;;;;;;;0.55;82.00;99413.98;1759136;81;25737;-59
2021/03/21 16:23:24;;;;;;;41.33;28.25;;;;;;;0.56;82.27;99410.25;1760342;81;25704;-60
2021/03/21 16:25:51;;;;;;;47.90;30.32;;;;;;;0.55;82.28;99412.12;1756147;81;26320;-60
2021/03/21 16:28:20;;;;;;;42.88;28.73;;;;;;;0.55;82.29;99415.31;1750071;81;25527;-60
2021/03/21 16:30:49;;;;;;;50.88;31.20;;;;;;;0.53;82.57;99408.92;1745170;81;25717;-59
2021/03/21 16:33:25;;;;;;;49.23;30.70;;;;;;;0.52;82.39;99410.52;1743860;81;25676;-59
2021/03/21 16:35:54;;;;;;;47.23;30.30;;;;;;;0.52;82.20;99413.17;1717205;81;25605;-60
2021/03/21 16:38:21;;;;;;;47.20;28.17;;;;;;;0.52;82.28;99417.17;1756182;79;25601;-63
2021/03/21 16:40:52;;;;;;;49.55;30.60;;;;;;;0.52;82.85;99416.63;1757115;79;25560;-61
2021/03/21 16:43:25;;;;;;;51.70;30.15;;;;;;;0.49;82.73;99413.70;1774537;79;25952;-63
2021/03/21 16:45:55;;;;;;;53.73;32.10;;;;;;;0.49;82.80;99413.70;1745573;82;25610;-61
2021/03/21 16:48:26;;;;;;;50.70;31.65;;;;;;;0.50;82.51;99409.98;1745642;82;25706;-61
2021/03/21 16:50:54;;;;;;;49.10;30.48;;;;;;;0.48;82.49;99410.79;1745547;82;25579;-60
2021/03/21 16:53:23;;;;;;;47.17;29.70;;;;;;;0.48;82.30;99412.91;1759644;80;25576;-61
2021/03/21 16:55:51;;;;;;;53.42;32.58;;;;;;;0.48;82.34;99416.11;1757630;81;26466;-60
2021/03/21 16:58:18;;;;;;;51.28;32.95;;;;;;;0.48;82.17;99413.45;1788815;80;25616;-60
2021/03/21 17:00:46;;;;;;;54.73;32.55;;;;;;;0.50;82.24;99420.63;1759045;81;25489;-63
2021/03/21 17:03:15;;;;;;;54.95;33.70;;;;;;;0.50;82.40;99424.08;1788766;80;25628;-60
2021/03/21 17:05:44;;;;;;;54.03;33.90;;;;;;;0.50;82.23;99421.96;1759113;81;25593;-62
2021/03/21 17:08:12;;;;;;;58.28;34.25;;;;;;;0.50;82.36;99424.63;1788991;80;30952;-63
2021/03/21 17:10:42;;;;;;;53.85;33.13;;;;;;;0.50;82.38;99427.28;1758832;81;25626;-60
2021/03/21 17:13:13;;;;;;;56.20;34.25;;;;;;;0.49;82.27;99429.67;1788740;80;25599;-60
2021/03/21 17:15:42;;;;;;;48.90;31.15;;;;;;;0.51;82.38;99428.36;1758921;81;25638;-61
2021/03/21 17:18:11;;;;;;;58.30;35.30;;;;;;;0.50;82.45;99425.95;1789115;80;25636;-63
2021/03/21 17:20:41;;;;;;;62.38;36.45;;;;;;;0.49;82.37;99428.34;1759129;80;25820;-60
2021/03/21 17:23:08;;;;;;;56.45;33.92;;;;;;;0.49;82.27;99428.34;1772423;80;25759;-62
2021/03/21 17:25:40;;;;;;;71.20;39.95;;;;;;;0.48;82.48;99426.75;1667275;84;35280;-62
2021/03/21 17:28:08;;;;;;;63.85;37.70;;;;;;;0.48;82.32;99434.20;1684342;84;25587;-61
2021/03/21 17:30:38;;;;;;;59.25;35.28;;;;;;;0.49;82.38;99434.98;1670614;85;25683;-62
2021/03/21 17:33:07;;;;;;;61.48;37.42;;;;;;;0.48;82.69;99433.41;1670547;85;25777;-62
2021/03/21 17:35:34;;;;;;;62.08;36.77;;;;;;;0.46;82.47;99440.83;1670361;85;25689;-61
2021/03/21 17:38:04;;;;;;;60.00;39.00;;;;;;;0.44;82.35;99437.09;1669069;86;25626;-60
2021/03/21 17:40:35;;;;;;;63.90;39.35;;;;;;;0.45;82.35;99437.92;1670491;85;25619;-62
2021/03/21 17:43:05;;;;;;;61.42;37.67;;;;;;;0.44;82.35;99437.64;1685694;81;25580;-61
2021/03/21 17:45:40;;;;;;;59.42;36.42;;;;;;;0.47;82.33;99445.89;1758911;81;25731;-63
2021/03/21 17:48:09;;;;;;;65.70;39.67;;;;;;;0.50;82.33;99448.58;1776984;78;25595;-61
2021/03/21 17:50:39;;;;;;;74.30;44.67;;;;;;;0.53;82.31;99456.03;1737574;81;25562;-61
2021/03/21 17:53:08;;;;;;;63.90;40.33;;;;;;;0.54;82.25;99440.32;1758404;80;25576;-59
2021/03/21 17:55:35;;;;;;;72.60;45.23;;;;;;;0.55;82.34;99444.59;1758880;80;26027;-63
2021/03/21 17:58:02;;;;;;;76.42;49.33;;;;;;;0.55;82.40;99445.92;1742620;79;25842;-63
2021/03/21 18:00:29;;;;;;;78.52;47.93;;;;;;;0.54;82.20;99449.63;1737354;81;25842;-63
2021/03/21 18:02:56;;;;;;;62.00;38.40;;;;;;;0.55;82.22;99458.69;1734012;81;25504;-60
2021/03/21 18:05:25;;;;;;;63.70;38.23;;;;;;;0.57;82.27;99463.75;1771838;79;25600;-62
2021/03/21 18:07:52;;;;;;;67.25;40.48;;;;;;;0.59;82.24;99463.49;1795937;79;25569;-61
2021/03/21 18:10:23;;;;;;;58.68;35.55;;;;;;;0.61;82.18;99461.36;1795787;79;25749;-62
2021/03/21 18:12:50;;;;;;;60.23;36.38;;;;;;;0.62;82.24;99464.30;1795653;79;25258;-63
2021/03/21 18:15:22;;;;;;;64.87;39.75;;;;;;;0.61;82.15;99458.70;1795848;79;25571;-61
2021/03/21 18:17:49;;;;;;;54.30;35.13;;;;;;;0.62;82.18;99458.98;1764342;79;25643;-62
2021/03/21 18:20:20;;;;;;;59.90;36.13;;;;;;;0.62;82.19;99464.30;1742340;81;25261;-61
2021/03/21 18:22:52;;;;;;;58.00;35.23;;;;;;;0.63;82.21;99464.05;1733344;82;25947;-61
2021/03/21 18:25:25;;;;;;;64.37;38.85;;;;;;;0.64;82.29;99463.50;1737797;79;25588;-60
2021/03/21 18:27:53;;;;;;;64.53;36.60;;;;;;;0.64;82.25;99465.63;1740975;81;25592;-60
2021/03/21 18:30:24;;;;;;;64.15;36.70;;;;;;;0.64;82.32;99466.16;1734290;81;26230;-62
2021/03/21 18:32:51;;;;;;;65.10;37.83;;;;;;;0.64;82.31;99472.81;1733225;82;25678;-62
2021/03/21 18:35:19;;;;;;;71.60;40.67;;;;;;;0.65;82.31;99475.76;1733245;82;25801;-60
2021/03/21 18:37:48;;;;;;;66.22;37.75;;;;;;;0.67;82.36;99473.09;1733172;82;25715;-61
2021/03/21 18:40:17;;;;;;;57.30;36.48;;;;;;;0.68;82.42;99488.01;1733285;82;25999;-60
2021/03/21 18:42:47;;;;;;;62.65;35.03;;;;;;;0.68;82.38;99492.52;1733156;82;25765;-62
2021/03/21 18:45:16;;;;;;;;;;;;;;;0.70;82.40;99488.54;1735805;81;25541;-62
2021/03/21 18:47:42;;;;;;;61.83;35.15;;;;;;;0.71;82.46;99490.13;1758754;81;25713;-61
2021/03/21 18:50:11;;;;;;;60.10;35.65;;;;;;;0.72;82.44;99493.06;1752053;81;25572;-61
2021/03/21 18:52:43;;;;;;;61.40;34.83;;;;;;;0.75;82.49;99499.73;1750602;81;25618;-60
2021/03/21 18:55:13;;;;;;;58.55;35.10;;;;;;;0.77;82.44;99498.94;1739576;81;25632;-60
2021/03/21 18:57:43;;;;;;;57.90;34.58;;;;;;;0.77;82.46;99498.12;1739240;81;25517;-62
2021/03/21 19:00:35;;;;;;;56.58;34.33;;;;;;;0.79;82.45;99508.78;1742994;81;26838;-61